Aérodrome :
LOGIN :

S'inscrire | Disclaimer

   EN    FR    IT 

 










Légende :    VFR   VFR Marginal   IFR   IFR Intensif   IFR Très Intensif
Visi : 
Plafond : 
>= 8 km
>= 3000ft
5 à 8 km
1000 à 3000 ft
1500m à 5 km
500 à 1000 ft
800 à 1500m
200 à 500 ft
< 800m
< 200 ft
Symboles :   Orages  Brouillard  Fortes neiges  Fortes précipitations  Vent > 20 kt
SIGMETs :   Divers  Orages  Givrage  Turbulence  Onde Orograph.  Cendres Volcan.






- Altitude de l'aérodrome : 160 ft
- Code IATA : FMO


EDDG - Münster Osnabrück Int.

DERNIER METAR :
  • 091820Z AUTO VRB02KT 6000 OVC022 00/M01 Q1007 NOSIG

METARs EXPIRÉS :
  • 091750Z AUTO 13003KT 6000 OVC023 M00/M01 Q1006 NOSIG
  • 091720Z AUTO 13003KT 100V160 5000 BR FEW010 BKN025 M00/M01 Q1006 NOSIG
  • 091650Z AUTO 13004KT 5000 BR SCT010 BKN023 00/M01 Q1006 TEMPO BKN011
  • 091620Z AUTO 13005KT 060V160 6000 BKN011 00/M01 Q1006 TEMPO SCT011
  • 091550Z AUTO 13003KT 070V180 6000 FEW012 00/M01 Q1006 NOSIG

TAF TAF EDDG
Valide du 09 à 18h jusqu'au 10 à 18h UTC


091700Z 0918/1018 VRB03KT 6000 SCT010
BECMG 0918/0920 4000 BR
TEMPO 0918/0923 BKN010
BECMG 0922/1001 1500 BCFG
TEMPO 1004/1010 0500 FZFG BKN002
BECMG 1010/1012 3500 BR BKN006
PROB40
TEMPO 1012/1018 6000 BKN012



MET'MAP, la Météo Aéronautique d'un coup d'oeil ! - Copyright ORBIFLY Décembre 2007 - Disclaimer

ORBIFLY MET'MAP TEAM :

Programmation & Développement : Alexandra Zaïnal
Sur une idée originale de : Baudouin d'Aumeries
Soutien technique & logistique : Manuel Goepfert
Assistance : Marc-Olivier Méhu




SOURCES & CREDITS :

   NOAA